sensor_id;sensor_type;location;lat;lon;timestamp;pressure;altitude;pressure_sealevel;temperature;humidity
36514;BME280;66331;46.796;9.824;2023-01-15T00:01:21;84160.11;;;-0.50;38.97
36514;BME280;66331;46.796;9.824;2023-01-15T00:03:48;84153.58;;;-0.35;41.12
36514;BME280;66331;46.796;9.824;2023-01-15T00:06:16;84149.81;;;-1.22;43.41
36514;BME280;66331;46.796;9.824;2023-01-15T00:08:44;84148.47;;;-1.05;43.83
36514;BME280;66331;46.796;9.824;2023-01-15T00:11:11;84143.18;;;0.64;40.00
36514;BME280;66331;46.796;9.824;2023-01-15T00:13:38;84141.22;;;0.01;40.82
36514;BME280;66331;46.796;9.824;2023-01-15T00:16:09;84136.26;;;0.42;41.07
36514;BME280;66331;46.796;9.824;2023-01-15T00:18:37;84130.26;;;-0.66;42.51
36514;BME280;66331;46.796;9.824;2023-01-15T00:21:09;84124.26;;;-1.08;43.50
36514;BME280;66331;46.796;9.824;2023-01-15T00:23:36;84118.07;;;-0.16;41.43
36514;BME280;66331;46.796;9.824;2023-01-15T00:26:02;84110.32;;;1.30;38.65
36514;BME280;66331;46.796;9.824;2023-01-15T00:28:29;84106.52;;;0.31;39.95
36514;BME280;66331;46.796;9.824;2023-01-15T00:30:56;84104.76;;;0.62;39.86
36514;BME280;66331;46.796;9.824;2023-01-15T00:33:23;84102.89;;;0.12;40.10
36514;BME280;66331;46.796;9.824;2023-01-15T00:35:50;84102.43;;;-0.67;42.18
36514;BME280;66331;46.796;9.824;2023-01-15T00:38:17;84099.46;;;-0.64;42.35
36514;BME280;66331;46.796;9.824;2023-01-15T00:40:44;84101.01;;;-0.57;42.53
36514;BME280;66331;46.796;9.824;2023-01-15T00:43:10;84096.39;;;0.04;40.17
36514;BME280;66331;46.796;9.824;2023-01-15T00:45:37;84092.74;;;0.56;37.30
36514;BME280;66331;46.796;9.824;2023-01-15T00:48:04;84092.37;;;0.57;36.75
36514;BME280;66331;46.796;9.824;2023-01-15T00:50:32;84088.53;;;0.11;37.27
36514;BME280;66331;46.796;9.824;2023-01-15T00:52:59;84090.62;;;0.30;36.78
36514;BME280;66331;46.796;9.824;2023-01-15T00:55:26;84094.41;;;-0.07;37.55
36514;BME280;66331;46.796;9.824;2023-01-15T00:57:53;84084.70;;;-0.02;38.45
36514;BME280;66331;46.796;9.824;2023-01-15T01:00:20;84085.38;;;-0.26;37.90
36514;BME280;66331;46.796;9.824;2023-01-15T01:02:46;84084.05;;;-0.08;37.62
36514;BME280;66331;46.796;9.824;2023-01-15T01:05:13;84081.09;;;-0.29;38.74
36514;BME280;66331;46.796;9.824;2023-01-15T01:07:40;84084.09;;;-1.66;42.08
36514;BME280;66331;46.796;9.824;2023-01-15T01:10:09;84080.11;;;-1.38;41.94
36514;BME280;66331;46.796;9.824;2023-01-15T01:12:36;84076.30;;;-0.49;40.25
36514;BME280;66331;46.796;9.824;2023-01-15T01:15:05;84078.66;;;-0.79;39.03
36514;BME280;66331;46.796;9.824;2023-01-15T01:17:32;84075.41;;;0.35;38.09
36514;BME280;66331;46.796;9.824;2023-01-15T01:19:59;84072.10;;;0.01;38.88
36514;BME280;66331;46.796;9.824;2023-01-15T01:22:27;84076.53;;;-1.63;41.03
36514;BME280;66331;46.796;9.824;2023-01-15T01:24:55;84068.95;;;-0.94;40.52
36514;BME280;66331;46.796;9.824;2023-01-15T01:27:23;84071.73;;;-0.29;39.95
36514;BME280;66331;46.796;9.824;2023-01-15T01:29:50;84068.16;;;-1.25;41.69
36514;BME280;66331;46.796;9.824;2023-01-15T01:32:18;84066.70;;;-1.09;40.68
36514;BME280;66331;46.796;9.824;2023-01-15T01:34:46;84065.41;;;-1.51;42.60
36514;BME280;66331;46.796;9.824;2023-01-15T01:37:14;84059.65;;;0.17;38.44
36514;BME280;66331;46.796;9.824;2023-01-15T01:39:46;84057.22;;;0.03;36.93
36514;BME280;66331;46.796;9.824;2023-01-15T01:42:16;84051.18;;;-0.07;36.50
36514;BME280;66331;46.796;9.824;2023-01-15T01:45:06;84049.75;;;-0.00;36.00
36514;BME280;66331;46.796;9.824;2023-01-15T01:47:34;84043.00;;;-0.86;39.46
36514;BME280;66331;46.796;9.824;2023-01-15T01:50:07;84039.13;;;0.07;38.36
36514;BME280;66331;46.796;9.824;2023-01-15T01:52:41;84033.43;;;0.18;37.19
36514;BME280;66331;46.796;9.824;2023-01-15T01:55:12;84033.20;;;-0.30;38.14
36514;BME280;66331;46.796;9.824;2023-01-15T01:57:41;84031.83;;;0.31;37.09
36514;BME280;66331;46.796;9.824;2023-01-15T02:00:10;84035.51;;;-0.31;32.93
36514;BME280;66331;46.796;9.824;2023-01-15T02:02:38;84032.70;;;0.30;30.92
36514;BME280;66331;46.796;9.824;2023-01-15T02:05:08;84032.99;;;0.28;34.79
36514;BME280;66331;46.796;9.824;2023-01-15T02:07:36;84026.21;;;-0.31;38.22
36514;BME280;66331;46.796;9.824;2023-01-15T02:10:04;84024.50;;;0.64;35.25
36514;BME280;66331;46.796;9.824;2023-01-15T02:12:35;84020.57;;;0.08;36.88
36514;BME280;66331;46.796;9.824;2023-01-15T02:15:08;84014.37;;;-0.31;36.73
36514;BME280;66331;46.796;9.824;2023-01-15T02:17:45;84015.62;;;0.59;36.48
36514;BME280;66331;46.796;9.824;2023-01-15T02:20:21;84015.20;;;0.41;35.79
36514;BME280;66331;46.796;9.824;2023-01-15T02:23:03;84013.80;;;0.14;33.59
36514;BME280;66331;46.796;9.824;2023-01-15T02:25:53;84003.86;;;0.35;32.42
36514;BME280;66331;46.796;9.824;2023-01-15T02:28:29;84002.86;;;0.17;32.60
36514;BME280;66331;46.796;9.824;2023-01-15T02:31:04;84001.22;;;-0.09;37.24
36514;BME280;66331;46.796;9.824;2023-01-15T02:33:37;84002.82;;;-0.20;36.62
36514;BME280;66331;46.796;9.824;2023-01-15T02:36:09;83999.54;;;0.16;36.30
36514;BME280;66331;46.796;9.824;2023-01-15T02:38:42;83992.22;;;0.59;36.40
36514;BME280;66331;46.796;9.824;2023-01-15T02:41:11;83983.76;;;0.74;36.23
36514;BME280;66331;46.796;9.824;2023-01-15T02:43:40;83980.09;;;0.41;36.63
36514;BME280;66331;46.796;9.824;2023-01-15T02:46:10;83974.60;;;0.36;36.50
36514;BME280;66331;46.796;9.824;2023-01-15T02:48:40;83983.76;;;-0.17;38.17
36514;BME280;66331;46.796;9.824;2023-01-15T02:51:14;83971.11;;;-0.08;38.21
36514;BME280;66331;46.796;9.824;2023-01-15T02:53:43;83970.73;;;-0.22;37.95
36514;BME280;66331;46.796;9.824;2023-01-15T02:56:15;83964.21;;;-0.33;38.04
36514;BME280;66331;46.796;9.824;2023-01-15T02:58:44;83955.21;;;-0.27;37.46
36514;BME280;66331;46.796;9.824;2023-01-15T03:01:16;83948.13;;;0.44;35.89
36514;BME280;66331;46.796;9.824;2023-01-15T03:03:48;83941.56;;;-0.57;38.13
36514;BME280;66331;46.796;9.824;2023-01-15T03:06:23;83931.66;;;-0.89;38.44
36514;BME280;66331;46.796;9.824;2023-01-15T03:08:52;83927.96;;;-1.83;42.53
36514;BME280;66331;46.796;9.824;2023-01-15T03:11:20;83926.68;;;-0.36;39.41
36514;BME280;66331;46.796;9.824;2023-01-15T03:13:49;83923.96;;;-0.47;40.01
36514;BME280;66331;46.796;9.824;2023-01-15T03:16:22;83926.44;;;-0.96;40.21
36514;BME280;66331;46.796;9.824;2023-01-15T03:18:59;83914.01;;;-0.41;39.59
36514;BME280;66331;46.796;9.824;2023-01-15T03:21:32;83906.75;;;0.11;38.81
36514;BME280;66331;46.796;9.824;2023-01-15T03:24:05;83902.53;;;-0.40;40.13
36514;BME280;66331;46.796;9.824;2023-01-15T03:26:34;83891.97;;;-1.33;42.46
36514;BME280;66331;46.796;9.824;2023-01-15T03:29:03;83888.63;;;-0.76;41.27
36514;BME280;66331;46.796;9.824;2023-01-15T03:31:32;83888.43;;;-1.04;41.28
36514;BME280;66331;46.796;9.824;2023-01-15T03:34:00;83890.87;;;-0.74;40.26
36514;BME280;66331;46.796;9.824;2023-01-15T03:36:27;83897.70;;;-0.65;40.62
36514;BME280;66331;46.796;9.824;2023-01-15T03:38:54;83894.00;;;0.25;38.95
36514;BME280;66331;46.796;9.824;2023-01-15T03:41:26;83894.48;;;-0.83;38.77
36514;BME280;66331;46.796;9.824;2023-01-15T03:44:02;83883.89;;;-0.44;38.68
36514;BME280;66331;46.796;9.824;2023-01-15T03:46:43;83883.60;;;0.10;37.75
36514;BME280;66331;46.796;9.824;2023-01-15T03:49:20;83887.68;;;-0.33;38.63
36514;BME280;66331;46.796;9.824;2023-01-15T03:51:58;83888.02;;;-1.64;42.08
36514;BME280;66331;46.796;9.824;2023-01-15T03:54:34;83888.56;;;-0.78;40.41
36514;BME280;66331;46.796;9.824;2023-01-15T03:57:08;83882.22;;;-0.45;39.74
36514;BME280;66331;46.796;9.824;2023-01-15T03:59:44;83877.74;;;-1.17;40.58
36514;BME280;66331;46.796;9.824;2023-01-15T04:02:14;83879.34;;;-1.70;41.99
36514;BME280;66331;46.796;9.824;2023-01-15T04:04:45;83880.42;;;-0.89;40.80
36514;BME280;66331;46.796;9.824;2023-01-15T04:07:13;83874.67;;;-0.36;39.04
36514;BME280;66331;46.796;9.824;2023-01-15T04:09:41;83884.66;;;-0.67;39.09
36514;BME280;66331;46.796;9.824;2023-01-15T04:12:09;83885.57;;;-1.05;39.10
36514;BME280;66331;46.796;9.824;2023-01-15T04:14:37;83882.54;;;-0.69;38.08
36514;BME280;66331;46.796;9.824;2023-01-15T04:17:04;83880.76;;;-0.49;38.17
36514;BME280;66331;46.796;9.824;2023-01-15T04:19:31;83883.95;;;-0.42;37.80
36514;BME280;66331;46.796;9.824;2023-01-15T04:21:58;83877.38;;;-0.16;37.84
36514;BME280;66331;46.796;9.824;2023-01-15T04:24:25;83874.15;;;0.40;37.58
36514;BME280;66331;46.796;9.824;2023-01-15T04:26:52;83876.28;;;0.46;37.78
36514;BME280;66331;46.796;9.824;2023-01-15T04:29:18;83870.72;;;-0.08;37.08
36514;BME280;66331;46.796;9.824;2023-01-15T04:31:45;83870.85;;;-0.29;37.95
36514;BME280;66331;46.796;9.824;2023-01-15T04:34:12;83864.75;;;-0.00;37.36
36514;BME280;66331;46.796;9.824;2023-01-15T04:36:39;83860.18;;;-0.10;36.24
36514;BME280;66331;46.796;9.824;2023-01-15T04:39:06;83856.48;;;0.75;35.59
36514;BME280;66331;46.796;9.824;2023-01-15T04:41:34;83850.65;;;-0.15;37.54
36514;BME280;66331;46.796;9.824;2023-01-15T04:44:01;83842.78;;;-0.04;38.55
36514;BME280;66331;46.796;9.824;2023-01-15T04:46:27;83842.07;;;-0.01;36.22
36514;BME280;66331;46.796;9.824;2023-01-15T04:48:54;83841.61;;;-0.32;33.97
36514;BME280;66331;46.796;9.824;2023-01-15T04:51:21;83838.84;;;-0.28;33.85
36514;BME280;66331;46.796;9.824;2023-01-15T04:53:48;83836.76;;;-0.18;33.39
36514;BME280;66331;46.796;9.824;2023-01-15T04:56:15;83836.88;;;0.04;37.65
36514;BME280;66331;46.796;9.824;2023-01-15T04:58:41;83828.66;;;-0.81;39.42
36514;BME280;66331;46.796;9.824;2023-01-15T05:01:10;83824.07;;;-0.55;39.33
36514;BME280;66331;46.796;9.824;2023-01-15T05:03:37;83815.22;;;-0.32;36.82
36514;BME280;66331;46.796;9.824;2023-01-15T05:06:04;83809.96;;;0.26;33.92
36514;BME280;66331;46.796;9.824;2023-01-15T05:08:32;83802.86;;;1.31;32.59
36514;BME280;66331;46.796;9.824;2023-01-15T05:11:01;83804.36;;;-1.27;40.55
36514;BME280;66331;46.796;9.824;2023-01-15T05:13:28;83803.55;;;-1.72;42.38
36514;BME280;66331;46.796;9.824;2023-01-15T05:15:55;83806.72;;;-0.22;38.67
36514;BME280;66331;46.796;9.824;2023-01-15T05:18:22;83796.72;;;-1.40;40.50
36514;BME280;66331;46.796;9.824;2023-01-15T05:20:48;83803.98;;;-0.36;37.97
36514;BME280;66331;46.796;9.824;2023-01-15T05:23:15;83793.89;;;-0.25;36.83
36514;BME280;66331;46.796;9.824;2023-01-15T05:25:42;83789.31;;;-0.06;37.50
36514;BME280;66331;46.796;9.824;2023-01-15T05:28:09;83785.17;;;0.03;34.17
36514;BME280;66331;46.796;9.824;2023-01-15T05:30:36;83785.85;;;-0.18;34.79
36514;BME280;66331;46.796;9.824;2023-01-15T05:33:03;83776.00;;;0.14;33.23
36514;BME280;66331;46.796;9.824;2023-01-15T05:35:30;83777.54;;;0.05;33.77
36514;BME280;66331;46.796;9.824;2023-01-15T05:37:57;83777.86;;;-0.21;37.07
36514;BME280;66331;46.796;9.824;2023-01-15T05:40:24;83780.19;;;-0.49;38.98
36514;BME280;66331;46.796;9.824;2023-01-15T05:42:52;83779.85;;;0.49;36.47
36514;BME280;66331;46.796;9.824;2023-01-15T05:45:19;83791.45;;;-0.63;37.91
36514;BME280;66331;46.796;9.824;2023-01-15T05:47:46;83783.58;;;0.96;36.30
36514;BME280;66331;46.796;9.824;2023-01-15T05:50:13;83790.13;;;-1.30;40.61
36514;BME280;66331;46.796;9.824;2023-01-15T05:52:39;83785.89;;;-0.70;40.20
36514;BME280;66331;46.796;9.824;2023-01-15T05:55:07;83779.44;;;-0.73;39.60
36514;BME280;66331;46.796;9.824;2023-01-15T05:57:34;83778.54;;;-0.54;38.85
36514;BME280;66331;46.796;9.824;2023-01-15T06:00:02;83774.18;;;-0.28;35.89
36514;BME280;66331;46.796;9.824;2023-01-15T06:02:29;83788.10;;;-1.91;41.52
36514;BME280;66331;46.796;9.824;2023-01-15T06:04:56;83790.24;;;-1.11;40.53
36514;BME280;66331;46.796;9.824;2023-01-15T06:07:23;83792.32;;;-0.18;39.87
36514;BME280;66331;46.796;9.824;2023-01-15T06:09:50;83788.90;;;-0.82;38.58
36514;BME280;66331;46.796;9.824;2023-01-15T06:12:17;83785.94;;;-0.35;37.18
36514;BME280;66331;46.796;9.824;2023-01-15T06:14:44;83775.50;;;-0.25;36.16
36514;BME280;66331;46.796;9.824;2023-01-15T06:17:11;83772.96;;;-0.56;38.70
36514;BME280;66331;46.796;9.824;2023-01-15T06:19:38;83770.34;;;-1.22;42.42
36514;BME280;66331;46.796;9.824;2023-01-15T06:22:05;83779.71;;;-1.12;42.19
36514;BME280;66331;46.796;9.824;2023-01-15T06:24:32;83784.31;;;-0.26;39.74
36514;BME280;66331;46.796;9.824;2023-01-15T06:26:58;83781.99;;;-0.45;39.45
36514;BME280;66331;46.796;9.824;2023-01-15T06:29:26;83780.12;;;-0.18;38.94
36514;BME280;66331;46.796;9.824;2023-01-15T06:31:53;83765.75;;;0.64;36.38
36514;BME280;66331;46.796;9.824;2023-01-15T06:34:20;83766.72;;;0.07;36.73
36514;BME280;66331;46.796;9.824;2023-01-15T06:36:47;83763.50;;;-0.38;37.86
36514;BME280;66331;46.796;9.824;2023-01-15T06:39:14;83760.07;;;-0.15;38.10
36514;BME280;66331;46.796;9.824;2023-01-15T06:41:41;83760.73;;;1.30;35.85
36514;BME280;66331;46.796;9.824;2023-01-15T06:44:11;83772.06;;;-0.74;40.04
36514;BME280;66331;46.796;9.824;2023-01-15T06:46:40;83778.28;;;-1.82;43.41
36514;BME280;66331;46.796;9.824;2023-01-15T06:49:08;83773.85;;;-1.14;40.70
36514;BME280;66331;46.796;9.824;2023-01-15T06:51:35;83770.16;;;-0.16;38.51
36514;BME280;66331;46.796;9.824;2023-01-15T06:54:02;83762.26;;;-0.10;38.09
36514;BME280;66331;46.796;9.824;2023-01-15T06:56:29;83753.28;;;0.14;37.71
36514;BME280;66331;46.796;9.824;2023-01-15T06:58:56;83757.90;;;1.09;37.28
36514;BME280;66331;46.796;9.824;2023-01-15T07:01:23;83755.57;;;0.91;36.96
36514;BME280;66331;46.796;9.824;2023-01-15T07:03:50;83757.10;;;0.16;37.97
36514;BME280;66331;46.796;9.824;2023-01-15T07:06:17;83757.22;;;0.38;37.77
36514;BME280;66331;46.796;9.824;2023-01-15T07:08:44;83756.69;;;-0.29;39.14
36514;BME280;66331;46.796;9.824;2023-01-15T07:11:12;83755.84;;;-0.48;37.03
36514;BME280;66331;46.796;9.824;2023-01-15T07:13:39;83745.97;;;0.15;35.85
36514;BME280;66331;46.796;9.824;2023-01-15T07:16:07;83732.43;;;0.20;35.94
36514;BME280;66331;46.796;9.824;2023-01-15T07:18:34;83729.71;;;0.00;36.15
36514;BME280;66331;46.796;9.824;2023-01-15T07:21:01;83726.07;;;0.16;35.04
36514;BME280;66331;46.796;9.824;2023-01-15T07:23:28;83731.44;;;-1.06;40.42
36514;BME280;66331;46.796;9.824;2023-01-15T07:25:55;83735.52;;;-0.76;39.82
36514;BME280;66331;46.796;9.824;2023-01-15T07:28:22;83726.47;;;-0.17;38.68
36514;BME280;66331;46.796;9.824;2023-01-15T07:30:49;83729.47;;;-0.06;38.69
36514;BME280;66331;46.796;9.824;2023-01-15T07:33:16;83726.58;;;-0.30;38.56
36514;BME280;66331;46.796;9.824;2023-01-15T07:35:44;83728.20;;;-0.58;40.69
36514;BME280;66331;46.796;9.824;2023-01-15T07:38:11;83729.31;;;-0.17;40.19
36514;BME280;66331;46.796;9.824;2023-01-15T07:40:38;83729.70;;;1.05;37.57
36514;BME280;66331;46.796;9.824;2023-01-15T07:43:05;83738.27;;;-0.73;41.22
36514;BME280;66331;46.796;9.824;2023-01-15T07:45:32;83745.71;;;-1.15;42.52
36514;BME280;66331;46.796;9.824;2023-01-15T07:47:58;83752.87;;;-1.55;42.29
36514;BME280;66331;46.796;9.824;2023-01-15T07:50:25;83751.91;;;-1.61;42.65
36514;BME280;66331;46.796;9.824;2023-01-15T07:52:52;83752.49;;;-0.96;41.36
36514;BME280;66331;46.796;9.824;2023-01-15T07:55:20;83755.07;;;-0.50;39.64
36514;BME280;66331;46.796;9.824;2023-01-15T07:57:47;83736.41;;;0.72;38.89
36514;BME280;66331;46.796;9.824;2023-01-15T08:00:18;83738.71;;;-0.41;39.23
36514;BME280;66331;46.796;9.824;2023-01-15T08:02:46;83735.18;;;-0.14;40.00
36514;BME280;66331;46.796;9.824;2023-01-15T08:05:13;83740.95;;;0.21;38.44
36514;BME280;66331;46.796;9.824;2023-01-15T08:07:41;83736.15;;;0.40;36.81
36514;BME280;66331;46.796;9.824;2023-01-15T08:10:10;83740.11;;;-0.07;39.72
36514;BME280;66331;46.796;9.824;2023-01-15T08:12:38;83743.96;;;-0.15;41.24
36514;BME280;66331;46.796;9.824;2023-01-15T08:15:07;83740.71;;;-0.14;40.10
36514;BME280;66331;46.796;9.824;2023-01-15T08:17:35;83736.63;;;-0.18;38.90
36514;BME280;66331;46.796;9.824;2023-01-15T08:20:05;83732.54;;;0.58;38.42
36514;BME280;66331;46.796;9.824;2023-01-15T08:22:32;83730.14;;;0.45;36.69
36514;BME280;66331;46.796;9.824;2023-01-15T08:24:59;83729.26;;;0.57;34.57
36514;BME280;66331;46.796;9.824;2023-01-15T08:27:26;83728.86;;;0.14;37.60
36514;BME280;66331;46.796;9.824;2023-01-15T08:29:53;83731.72;;;-0.50;40.57
36514;BME280;66331;46.796;9.824;2023-01-15T08:32:19;83736.77;;;0.81;38.95
36514;BME280;66331;46.796;9.824;2023-01-15T08:34:46;83735.04;;;0.57;35.73
36514;BME280;66331;46.796;9.824;2023-01-15T08:37:13;83730.89;;;0.62;35.02
36514;BME280;66331;46.796;9.824;2023-01-15T08:39:40;83727.40;;;1.30;34.01
36514;BME280;66331;46.796;9.824;2023-01-15T08:42:07;83724.31;;;0.97;36.39
36514;BME280;66331;46.796;9.824;2023-01-15T08:44:35;83721.47;;;0.19;37.81
36514;BME280;66331;46.796;9.824;2023-01-15T08:47:02;83716.93;;;1.36;36.72
36514;BME280;66331;46.796;9.824;2023-01-15T08:49:29;83720.59;;;-0.21;39.69
36514;BME280;66331;46.796;9.824;2023-01-15T08:51:56;83720.81;;;-0.08;41.02
36514;BME280;66331;46.796;9.824;2023-01-15T08:54:23;83711.88;;;0.47;37.82
36514;BME280;66331;46.796;9.824;2023-01-15T08:56:50;83712.94;;;0.54;36.92
36514;BME280;66331;46.796;9.824;2023-01-15T08:59:17;83710.64;;;0.65;36.69
36514;BME280;66331;46.796;9.824;2023-01-15T09:01:44;83696.68;;;1.25;34.76
36514;BME280;66331;46.796;9.824;2023-01-15T09:04:13;83704.67;;;0.31;37.78
36514;BME280;66331;46.796;9.824;2023-01-15T09:06:41;83701.80;;;0.12;40.34
36514;BME280;66331;46.796;9.824;2023-01-15T09:09:09;83694.29;;;0.15;39.49
36514;BME280;66331;46.796;9.824;2023-01-15T09:11:37;83694.51;;;0.54;38.66
36514;BME280;66331;46.796;9.824;2023-01-15T09:14:04;83689.71;;;1.14;38.28
36514;BME280;66331;46.796;9.824;2023-01-15T09:16:32;83696.25;;;0.14;39.09
36514;BME280;66331;46.796;9.824;2023-01-15T09:18:58;83683.24;;;-0.52;41.22
36514;BME280;66331;46.796;9.824;2023-01-15T09:21:25;83684.56;;;0.95;38.20
36514;BME280;66331;46.796;9.824;2023-01-15T09:23:52;83675.42;;;1.27;36.37
36514;BME280;66331;46.796;9.824;2023-01-15T09:26:26;83679.31;;;1.38;35.78
36514;BME280;66331;46.796;9.824;2023-01-15T09:28:54;83681.54;;;1.43;36.83
36514;BME280;66331;46.796;9.824;2023-01-15T09:31:21;83671.01;;;1.36;37.72
36514;BME280;66331;46.796;9.824;2023-01-15T09:33:49;83671.29;;;1.21;37.73
36514;BME280;66331;46.796;9.824;2023-01-15T09:36:18;83663.26;;;2.23;35.44
36514;BME280;66331;46.796;9.824;2023-01-15T09:38:48;83660.90;;;2.39;34.85
36514;BME280;66331;46.796;9.824;2023-01-15T09:41:16;83662.10;;;2.33;34.82
36514;BME280;66331;46.796;9.824;2023-01-15T09:43:48;83654.97;;;2.20;34.55
36514;BME280;66331;46.796;9.824;2023-01-15T09:46:20;83651.53;;;2.24;34.77
36514;BME280;66331;46.796;9.824;2023-01-15T09:48:58;83654.72;;;1.51;36.47
36514;BME280;66331;46.796;9.824;2023-01-15T09:51:31;83658.58;;;2.10;35.82
36514;BME280;66331;46.796;9.824;2023-01-15T09:54:10;83663.28;;;2.17;35.26
36514;BME280;66331;46.796;9.824;2023-01-15T09:56:40;83665.18;;;1.50;36.97
36514;BME280;66331;46.796;9.824;2023-01-15T09:59:18;83660.39;;;2.48;35.29
36514;BME280;66331;46.796;9.824;2023-01-15T10:01:46;83651.34;;;1.90;35.76
36514;BME280;66331;46.796;9.824;2023-01-15T10:04:19;83647.83;;;2.11;35.83
36514;BME280;66331;46.796;9.824;2023-01-15T10:06:57;83638.45;;;1.84;36.01
36514;BME280;66331;46.796;9.824;2023-01-15T10:09:29;83632.58;;;2.13;35.28
36514;BME280;66331;46.796;9.824;2023-01-15T10:12:02;83633.24;;;1.59;35.92
36514;BME280;66331;46.796;9.824;2023-01-15T10:14:34;83632.47;;;1.81;35.56
36514;BME280;66331;46.796;9.824;2023-01-15T10:17:02;83624.99;;;2.52;35.34
36514;BME280;66331;46.796;9.824;2023-01-15T10:19:28;83620.09;;;2.36;35.11
36514;BME280;66331;46.796;9.824;2023-01-15T10:22:00;83615.97;;;2.80;34.42
36514;BME280;66331;46.796;9.824;2023-01-15T10:24:36;83602.86;;;2.79;34.92
36514;BME280;66331;46.796;9.824;2023-01-15T10:27:08;83598.98;;;3.27;33.93
36514;BME280;66331;46.796;9.824;2023-01-15T10:29:45;83601.23;;;3.22;34.01
36514;BME280;66331;46.796;9.824;2023-01-15T10:32:22;83601.32;;;3.78;33.38
36514;BME280;66331;46.796;9.824;2023-01-15T10:35:04;83599.86;;;3.05;34.87
36514;BME280;66331;46.796;9.824;2023-01-15T10:37:38;83596.10;;;3.39;33.74
36514;BME280;66331;46.796;9.824;2023-01-15T10:40:17;83590.99;;;3.93;33.19
36514;BME280;66331;46.796;9.824;2023-01-15T10:42:56;83581.30;;;3.76;33.52
36514;BME280;66331;46.796;9.824;2023-01-15T10:45:29;83584.69;;;3.76;33.99
36514;BME280;66331;46.796;9.824;2023-01-15T10:48:02;83581.50;;;3.98;33.69
36514;BME280;66331;46.796;9.824;2023-01-15T10:50:31;83580.51;;;3.43;35.78
36514;BME280;66331;46.796;9.824;2023-01-15T10:53:04;83572.33;;;3.64;34.23
36514;BME280;66331;46.796;9.824;2023-01-15T10:55:37;83568.24;;;4.46;33.38
36514;BME280;66331;46.796;9.824;2023-01-15T10:58:12;83567.13;;;3.83;34.08
36514;BME280;66331;46.796;9.824;2023-01-15T11:00:42;83561.26;;;4.72;33.06
36514;BME280;66331;46.796;9.824;2023-01-15T11:03:16;83554.66;;;4.98;32.65
36514;BME280;66331;46.796;9.824;2023-01-15T11:05:45;83550.75;;;4.75;32.60
36514;BME280;66331;46.796;9.824;2023-01-15T11:08:17;83544.86;;;4.38;33.39
36514;BME280;66331;46.796;9.824;2023-01-15T11:10:46;83538.53;;;4.49;33.47
36514;BME280;66331;46.796;9.824;2023-01-15T11:13:19;83537.81;;;4.58;33.28
36514;BME280;66331;46.796;9.824;2023-01-15T11:15:48;83538.48;;;4.82;33.06
36514;BME280;66331;46.796;9.824;2023-01-15T11:18:21;83539.12;;;4.64;32.79
36514;BME280;66331;46.796;9.824;2023-01-15T11:20:49;83533.79;;;4.73;32.59
36514;BME280;66331;46.796;9.824;2023-01-15T11:23:19;83536.78;;;4.86;32.62
36514;BME280;66331;46.796;9.824;2023-01-15T11:25:49;83538.72;;;4.55;34.79
36514;BME280;66331;46.796;9.824;2023-01-15T11:28:17;83540.12;;;4.97;33.38
36514;BME280;66331;46.796;9.824;2023-01-15T11:30:53;83539.82;;;4.58;33.30
36514;BME280;66331;46.796;9.824;2023-01-15T11:33:22;83530.50;;;4.59;34.58
36514;BME280;66331;46.796;9.824;2023-01-15T11:35:50;83520.12;;;5.31;32.38
36514;BME280;66331;46.796;9.824;2023-01-15T11:38:18;83510.92;;;4.71;33.40
36514;BME280;66331;46.796;9.824;2023-01-15T11:40:51;83526.53;;;4.29;34.05
36514;BME280;66331;46.796;9.824;2023-01-15T11:43:20;83535.89;;;4.00;34.66
36514;BME280;66331;46.796;9.824;2023-01-15T11:45:49;83536.48;;;3.76;35.96
36514;BME280;66331;46.796;9.824;2023-01-15T11:48:17;83534.01;;;4.67;35.06
36514;BME280;66331;46.796;9.824;2023-01-15T11:50:50;83535.65;;;4.31;35.08
36514;BME280;66331;46.796;9.824;2023-01-15T11:53:21;83541.56;;;4.05;35.25
36514;BME280;66331;46.796;9.824;2023-01-15T11:55:52;83544.91;;;4.80;33.28
36514;BME280;66331;46.796;9.824;2023-01-15T11:58:21;83541.96;;;5.22;32.81
36514;BME280;66331;46.796;9.824;2023-01-15T12:00:50;83544.89;;;4.53;33.02
36514;BME280;66331;46.796;9.824;2023-01-15T12:03:21;83545.98;;;3.94;34.45
36514;BME280;66331;46.796;9.824;2023-01-15T12:05:56;83549.53;;;4.78;32.47
36514;BME280;66331;46.796;9.824;2023-01-15T12:08:34;83538.61;;;5.00;31.20
36514;BME280;66331;46.796;9.824;2023-01-15T12:11:14;83539.12;;;5.20;31.09
36514;BME280;66331;46.796;9.824;2023-01-15T12:13:49;83549.55;;;4.74;31.52
36514;BME280;66331;46.796;9.824;2023-01-15T12:16:27;83560.23;;;3.30;33.99
36514;BME280;66331;46.796;9.824;2023-01-15T12:18:58;83569.97;;;2.85;34.17
36514;BME280;66331;46.796;9.824;2023-01-15T12:21:43;83574.04;;;2.50;36.53
36514;BME280;66331;46.796;9.824;2023-01-15T12:24:46;83573.19;;;1.86;38.99
36514;BME280;66331;46.796;9.824;2023-01-15T12:27:31;83583.31;;;1.55;40.12
36514;BME280;66331;46.796;9.824;2023-01-15T12:30:16;83574.25;;;1.50;40.77
36514;BME280;66331;46.796;9.824;2023-01-15T12:32:53;83571.35;;;1.75;41.27
36514;BME280;66331;46.796;9.824;2023-01-15T12:35:28;83574.06;;;1.44;41.92
36514;BME280;66331;46.796;9.824;2023-01-15T12:37:57;83579.09;;;0.89;43.11
36514;BME280;66331;46.796;9.824;2023-01-15T12:40:31;83560.53;;;1.88;42.60
36514;BME280;66331;46.796;9.824;2023-01-15T12:42:58;83590.08;;;1.21;44.56
36514;BME280;66331;46.796;9.824;2023-01-15T12:45:30;83579.48;;;1.19;45.64
36514;BME280;66331;46.796;9.824;2023-01-15T12:48:07;83567.79;;;0.92;45.90
36514;BME280;66331;46.796;9.824;2023-01-15T12:50:41;83576.81;;;0.83;47.49
36514;BME280;66331;46.796;9.824;2023-01-15T12:53:13;83575.77;;;0.48;48.16
36514;BME280;66331;46.796;9.824;2023-01-15T12:55:47;83581.89;;;1.28;46.83
36514;BME280;66331;46.796;9.824;2023-01-15T12:58:42;83602.05;;;0.78;47.51
36514;BME280;66331;46.796;9.824;2023-01-15T13:01:16;83601.02;;;0.35;48.76
36514;BME280;66331;46.796;9.824;2023-01-15T13:03:51;83610.55;;;0.55;48.94
36514;BME280;66331;46.796;9.824;2023-01-15T13:06:22;83620.69;;;0.99;47.85
36514;BME280;66331;46.796;9.824;2023-01-15T13:08:56;83622.00;;;0.92;48.88
36514;BME280;66331;46.796;9.824;2023-01-15T13:11:26;83628.81;;;-0.19;51.70
36514;BME280;66331;46.796;9.824;2023-01-15T13:13:53;83620.16;;;0.12;50.97
36514;BME280;66331;46.796;9.824;2023-01-15T13:16:23;83628.62;;;0.38;50.10
36514;BME280;66331;46.796;9.824;2023-01-15T13:19:00;83627.47;;;0.75;49.13